Race Results for
Capital Cross Classic
Reston, VA
(Event Information)
View By:
Cyclo-cross on 12/06/2009

Note: Ranking points are NOT upgrade points. An explanation of ranking points can be found here.


Men - B - Master

 Place Points NameCity, StateTime USAC #BibTeam
1396.68Michael Morali   Cooksville, MD0:37:26 251023  302 C3-Athletes Serving Athletes
2399.85Stephen Robinson   Arlington, VA0:37:36 30220  301 Squadra Coppi/IM SAAB
3403.02Neal Sapp   Chadds Ford, PA0:37:37 245112  334 Ben's Performance Bikes
4406.19Benjamin Anemone   Wilmington, DE0:37:44 156959  345 Christiana Care PT+/FSVS
5409.36David Parse   Washington, DC0:38:13 257936  313 Route 1 Velo/Arrow Bicycle
6412.53Johnny May   Baltimore, MD0:38:13 140403  360 C3-Athletes Serving Athletes
7415.70Anthony Monaco   Millersville, MD0:38:15 269304  340 Team SCARR-Ommegang
8418.87Neil Schirmer   Silver Spring, MD0:38:26 282645  308 
9422.04Colby Waller   Washington, DC0:38:29 279294  318 Gripped Racing
10425.21Scott Stahl   Fairfax, VA0:38:31 267714  309 SEAVS RACING/Ben's Performance Bikes
11428.38Jason Berry   Arlington, VA0:38:50 151273  359 GRIPPED RACING
12Todd Bauer   0:38:58  338 Single Speed Outlaw Factory Team/Bicycle
13434.72Andreas Gutzeit   Washington, DC0:39:10 215952  325 HPC List
14437.89Scott Cernich   Washington, DC0:39:21 206727  303 Route 1 Velo/Arrow Bicycle
15441.06Albert Greene   Woodbridge, VA0:39:29 218663  352 Yellow Breeches Racing
16444.23William Schieken   Washington, DC0:39:34 260699  314 Route 1 Velo/Arrow Bicycle
17447.40Ryan Douglas   Washington, DC0:39:39 191602  317 Route 1 Velo/Arrow Bicycle
18450.57Michael Czupryna   Newark, DE0:39:43 177120  347 Christiana Care PT+/FSVS
19453.74Bill OKeefe   Baltimore, MD0:39:45 284982  353 C3 - Athletes Serving Athletes
20456.91T Scott Thompson   Arlington, VA0:39:50 189333  304 Squadra Coppi/IM Saab
21460.08John Kamenick   Ashburn, VA0:40:14 216783  300 evolution cycling
22463.25William Gilmer   Va. Beach, VA0:40:26 199585  320 tri-power
23466.42Norman Brach   Sykesville, MD0:40:33 4540  351 C3 - Athletes Serving Athletes
24469.59Jeffrey Anderson   Vienna, VA0:41:06 50086  310 HPC/List
25472.76Thori Wolfe   Washington, DC0:41:06 234409  316 Route 1 Velo/Arrow Bicycle
26Dave O'Neill   0:41:06  355 Radical Roots
27479.10Paul Varga   Silver Spring, MD0:41:09 263568  306 Bicycle Place Velo Club
28482.27Karl Kensinger   Arlington, VA0:41:25 18948  366 NCVC/Inova Health System
29485.44Michael Davis   Centreville, VA0:41:32 274940  374 Squadra Coppi / IM SAAB
30488.61Joel Gwadz   Washington, DC0:41:34 14492  315 DCMTB:Family Bike Shop
31491.78Brian Wester   Strafford, PA0:41:46 285234  376 
32494.95William McCasland   Albuquerque, NM0:41:50 285485  344 US Air Force
33498.12Thor Engblom   Frederick, MD0:41:51 209411  365 NCVC/Inova Health System
34501.29Kenneth Woodrow   Cincinnati Oh0:42:04 53598  357 Squadra Coppi/IM Saab
35William Blandford   0:42:38  386 Adventures for the Cure
36507.63Charles Buki   Alexandria, VA0:42:46 230294  322 Johnny Utah
37510.80Doug Nagel   New Hope, PA0:42:50 278645  341 Evolution Racing
38513.97Richard Zachary   Acton, MA0:43:00 131498  379 NCVC/Inova Health System
39517.14David Tambeaux   Columbia, MD0:43:04 171470  362 Adventures for the Cure
40520.31John Heywood   Washington, DC0:43:16 229464  380 1412 Velo Club
41523.48Chas Ryan   Annandale, VA0:43:30 209147  343 Potomac Velo Club
42526.65Alain Philippe   Lutherville, MD0:43:39 239994  346 CW/King Pawn/Joe's Bike Shop
43Rob Campbell   0:43:47  385 
44532.99Michael Jinks   Stafford, VA0:43:54 17837  378 BikeWorks Racing
45536.16John Ludicke   Severna Park, MD0:43:57 269884  327 AABC
46Mike Wester   0:44:02  382 AFC
47542.50Marc Klein   Arlington, VA0:44:07 201836  370 NCVC/Inova Health System
48545.67Eric Ciccoretti   Arlington, VA0:44:08 121143  364 
49548.84Dave Vannier   Bethesda, MD0:44:13 252608  350 DCMTB - Fueled by Whole Foods Market
50552.01Ignatius Baran   Washington Dc, DC0:44:13 2516  383 Gripped Racing
51555.18Steven Dontigny   Falls Church, VA0:44:29 102568  369 The Bike Lane
52558.35Mike Krawczel   Rockville, MD0:45:25 19799  333 Artemis
53561.52Joseph Kotun   Falls Church, VA0:45:33 77079  358 Evolution Cycling
54564.69Scott Mabry   Arlington, VA0:45:34 231808  307 NCVC/ Inova Health System
55567.86Matthew Hoyer   Alexandria, VA0:46:54 303051  381 
56571.03James McNeely   Crofton, MD-1 Lap 238643  387 Squadra Coppi
57Kemal Tuncer   -1 Lap  319 Bicycle Place Velo Club
58577.37Gary Snyder   New Hope, PA-1 Lap 270006  377 Evolution Racing
59Rick Mellendick   -1 Lap  348 
60Jeffrey Gaston   -1 Lap  330 SMS Data Products Inc.
61Bruce Lowrey   -1 Lap  375 
62590.05Carlo Alfano   Brunswick, MD-1 Lap 302425  363 
DNFJohn Maisto   Silver Spring, MD 221610  321 Bicycle Place Velo Club
DNFPeter Baiamonte   Brooklyn, NY 2255  328 Brooklyn Velo Force / GQ Racing
DNFDennis Smith   Newark, DE 33112  336 Secret Henry's Team
DNFMark Wanco   New Cumberland, PA 238331  337 HUP United
DNFsol schott     349 los pariahs
DNFBrian Reynolds     356 Lost Riders of the Salt City
DNFsteve breeden   Winchester, VA 259551  384 wnichester wheelmen race team

Men - B

 Place Points NameCity, StateTime USAC #BibTeam
1344.47Samuel O'Keefe   Baltimore, MD0:46:01 254864  201 C3 - Athletes Serving Athletes
2350.93Daniel Chabanov   Brooklyn, NY0:46:47 264739  200 CRCA/Jonathan Adler Racing
3Kyle Peppo   0:46:47  203 CRCA/Jonathan Adler Racing
4363.85Yanni Papadopoulos   Silver Spring, MD0:47:37 146488  202 Team Latitude/ABRT
5370.31Kyle Murphy   Alexandria, VA0:47:47 168526  207 The Bike Lane
6Zach Spears   0:47:48  253 Bike Works
7383.23Mark Flis   Salt Lake City, UT0:48:28 282287  205 Human Zoom/ Pabst Blue Ribbon
8389.69Eric Lundgren   Pittsburgh, PA0:48:32 264778  215 Iron City Bikes
9396.15Ryan Bannon   Reston, VA0:49:20 185425  225 The Bike Lane
10402.61Russell Williford   Corvallis, OR0:49:24 229467  212 Fulcrum Coaching/WWVC
11409.07Matthew Even   Washington, DC0:49:30 247035  211 Hub Racing
12415.53Chris Mayhew   Pittsburgh, PA0:49:36 88693  204 JBV Coaching
13421.99Kevin Horvath   Chesapeake, VA0:49:37 143936  209 TriPower
14428.45Matthew Bartlett   Washington, DC0:50:52 284185  250 TOMS Shoes p/b Kindhuman Sports
15434.91Stephen Riskus   Silver Spring, MD0:50:58 252080  237 AABC
16441.37Peter Kennedy   Glyndon, MD0:51:13 187763  235 C3-Athletes Serving Athletes
17447.83Mark Plotz   Washington, DC0:51:24 213456  251 Hub Racing
18454.29Todd Bickling   Edgewater, MD0:51::40 257925  232 Bike Doctor/Bayside Velo
19460.75Brooke Patterson   Washington, DC0:52:12 220581  221 Route 1 Velo/Arrow Bicycle
20467.21John Glodek   Germantown, MD0:52:13 269746  229 Twin Six
21John Hostetter III   0:52:23  210 C3-Athletes Serving Athletes
22480.13Clayton Feldman   Colorado Springs, CO0:52:42 257674  246 NUVO
23486.59Jeffrey Trinh   Vienna, VA0:52:55 239001  241 Georgetown University
24493.05Gregory Abbott   Washington, DC0:52:57 151860  242 NCVC/Spokes Etc.
25499.51Christopher Price   Baltimore, MD0:53:36 237578  233 C3-Athletes Serving Athletes
26505.97Chris Carraway   Washington, DC0:53:44 272503  248 NCVC/Spokes Etc.
27512.43Daniel Tille   Apo, 0:53:49 165701  230 Fulcrum Coaching
28518.89Peter Henry   Richmond, VA0:53:28 43408  218 Carytown Bicycle Company
29525.35Timothy Pope   Norfolk, VA0:54:40 230804  240 Fat Frogs Racing
30531.81Corey Twyman   Hyattsville, MD0:54:57 157964  217 DCMTB - Fueled By Whole Foods Market
31538.27Sean Yeager   Richmond, VA0:55:01 39189  213 Altius Cycling Team
32544.73Charles Hanlon   Phoenixville, PA0:55:09 237360  239 Guys Racing Club
33551.19Matthew Brancheau   Baltimore, MD0:55:39 206409  224 C3 - Athletes Serving Athletes
34557.65Trevor Shattuck   Lutherville, MD0:55:46 226606  226 Team BBC
35564.11Ryan Dudek   Lafayette Hill, PA0:56:32 269328  247 TOMS Shoes p/b KindHuman Sports
36Donny Koniowsky   0:56:32  254 Route 1 Velo/Arrow Bicycle
37577.03Bryan Burns   Haymarket, VA-1 Lap 237069  255 Haymarket
38583.49William Thompson   Alexandria, VA-1 Lap 128841  243 Potomac Velo Club
39589.95George Blankenship   Alexandria, VA-1 Lap 248929  252 NCVC/Inova Health System
DNFMatthew Donahue   Harrisonburg, VA 245552  208 DCMTB/Whole Foods Market
DNFMatthew Tucker   Washington, DC 285310  216 
DNFThori Wolfe   Washington, DC 234409  220 Route 1 Velo/Arrow Bicycle
DNFJudd Walencikowski   Miami Fl 233689  222 Bike Doctor
DNFRichard Murby   Washington, DC 285944  223 The Bike Rack
DNFWilliam Schieken   Washington, DC 260699  244 Route 1 Velo/Arrow Bicycle
DNFMichael Githens   Mountain View, CA 232054  245 Georgetown University Cycling

Men - Pro/Cat 1/2/3

 Place Points NameCity, StateTime USAC #BibTeam
1Valentin Scherz Scherz   0:58:24  Pro Cycles Scott Newwork
2305.02Greg Wittwer   Richmond, VA0:59:56 111687  ALAN North America Cycling Team
3319.35Andrew Wulfkuhle   Lancaster, PA1:00:13 153981  C3-Athletes Serving Athletes
4333.68Jared Nieters   Wilmington Vt1:01:38 220150  Haymarket Bicycles/HomeVisit
5348.01Weston Schempf   Rockville, MD1:01:52 122030  C3-Athletes Serving Athletes
6Joseph Dombrowski   1:02:49  40 Haymarket/Homevisit
7376.67Collin Becker   Colorado Springs Co1:04:00 179626  19 Waltworks
8391.00Stephen Cummings   Pittsburgh, PA1:04:30 201402  Indiana Regional Medical Center
9405.33David Fuentes (1 - Cat1)   Herndon, VA1:06:25 58598  17 Battley Harley Davidson-Sonoma
10419.66Simeon Green   Warrenton, VA-1 LAP 153954  14 C.A.Castelsarrasin/Bouygues Telecom
11Gonzalo Escobar   -1 LAP  20 Haymarket
12448.32Nate Seymour   Alexandria, VA-1 LAP 579  Evolution Cycling Club
13462.65Stephen Riskus   Silver Spring, MD-1 LAP 252080  10 AABC
DNFChris Mayhew   Pittsburgh, PA 88693  JBV Coaching
DNFClayton Feldman   Colorado Springs, CO 257674  11 NUVO
DNFTom Jeffrey   Richmond, VA 205634  12 Team Natures Path/3Sports
DNFChris Carraway   Washington, DC 272503  13 NCVC/Spokes Etc.
DNFMichael Stoop (Pro)   Richmond, VA 212905  15 Speedy's Hot Sauce pb Fuji
DNFKyle Knott   Rock Hill, SC 274033  16 Speedy's Hot Sauce pb Fuji

Men - Cat 1/2/3

 Place Points NameCity, StateTime USAC #BibTeam
1248.71Blair Saunders   Newark, DE0:44:42 69445  119 Ben's Performance Bike's/Ridley
2256.09Dave Weaver   Towson, MD0:44:56 37442  103 ALAN North America Cycling Team
3263.47Andrew Gorski (1 - Cat1)   Allison Park, PA0:45:12 203109  155 SPK/Speedgoat
4270.85Chris Samuel   Haddonfield, NJ0:45:45 89168  104 Cape Atlantic/Beaconcycling
5278.23Greg Ferguson (2 - Cat1)   Glassboro, NJ0:46:16 11462  100 Beacon Cycling & Fitness
6285.61Christopher Nystrom   Ellicott City, MD0:46:27 188852  108 C3 - Athletes Serving Athletes
7292.99Evan Ellicott   Riverdale, MD0:46:28 157667  143 Bike Doctor / Bayside Velo
8300.37Glenn Turner   Wilmington, DE0:46:51 157619  101 Human Zoom/Pabst Blue Ribbon
9307.75Joseph Piccillo   Doylestown, PA0:47:12 176980  105 Evolution Racing
10315.13Robert Collins   Landenberg, PA0:48:28 58634  102 Secret Henry's Team
11322.51Bernie Shiao   Sparks Glencoe, MD0:48:53 32463  109 Kelly Benefit Strategies/LSV
12329.89Ron Huebner   Waterford, VA0:49:36 145895  135 Potomac Velo Club
13337.27Daniel Brill   South River, NJ0:49:48 150191  106 Cape Atlantic Racing/Beaconcycling.com
14344.65Jed Prentice   Takoma Park, MD0:49:50 208680  151 Bike Doctor
15Chris Scott   0:50:07  156 Shenandoah Mtn Touring
16359.41Matthew Parse   Purcellville, VA0:50:45 27333  129 Route 1 Velo / Arrow Bicycles
17366.79Joe Lillibridge   Finksburg, MD0:51:03 241286  128 C3 - Athletes Serving Athletes
18374.17Paul Wahner   Drexel Hill, PA0:51:09 268051  114 DrWahner.com
19381.55David Lowe   Bala Cynwyd, PA0:51:13 212255  117 Human Zoom/Pabst Blue Ribbon
20388.93Barry Wahner   Drexel Hill, PA0:51:15 252332  115 DrWahner.com
21396.31Brian Poochigian   Washington, DC0:51:49 28422  121 DCMTB - Whole Foods Market
22403.69Alex Monte-Sano   Ann Arbor, MI0:52:18 234763  127 
23411.07Stephen Robinson   Arlington, VA0:52:23 30220  120 Squadra Coppi/IM SAAB
24418.45Chris Huhn   Leesburg, VA0:52:56 195989  144 Evolution Cycling Club
25425.83James Bronson   Gaithersburg, MD0:52:59 48634  134 LSV/Kelly Benefit Strategies
26433.21Judd Milne   Reston, VA0:53:09 113729  153 Squadra Coppi/IM Saab
27440.59Shawn Downing   Baltimore, MD0:53:45 45276  125 Chesapeake Wheelmen/Joe's Bike/King Pawn
28447.97Kevin Breckenmaker   Hershey, PA0:53:46 45117  137 Yellow Breeches Racing
29455.35Kelly Cline   Media, PA0:54:38 145697  107 Wissahickon
30462.73James Feehan   Spring Lake, NJ 11379  118 Kissena
31470.11Thor Engblom   Frederick, MD 209411  141 NCVC/Inova Health System
32477.49John Rogers   Takoma Park, MD 136767  123 DCMTB--Fueled by Whole Foods Market
33484.87Marc Frazer   Baltimore, MD 128378  145 Kelly Benefit Strategies/LSV Amateur Tea
34492.25Nate Seymour   Alexandria, VA 579  138 Evolution Cycling Club
35499.63Karl Kensinger   Arlington, VA 18948  142 NCVC/Inova Health System
36507.01Chris Zangmeister   Gaithersburg, MD-1 Lap 251536  149 AABC Racing
37514.39Joseph Kotun   Falls Church, VA-1 Lap 77079  154 Evolution Cycling Club
38521.77Nunzio Dibiasi   Elizabethtown, PA-1 Lap 9413  152 Yellow Breeches Racing
DNFChad Culbertson   Pennington, NJ 230098  112 Guy's Racing
DNFMichael Hosang   Virginia Beach, VA 205055  130 Tripower
DNFBenjamin Anemone   Wilmington, DE 156959  136 Christiana Care PT+/FSVS
DNFErik Leaver   Silver Spring, MD 136519  146 NCVC/Inova Health System
DNFChristopher Merriam   Washington, DC 180319  147 T.E.A.M. Fuji
DNFTodd Pittman   Ellicott City, MD 28242  148 
DNFBrent Williamson   Powhatan, VA 38442  150 Rostello presented by Fiorucci/Cycor
DNFChris Evans   Philadelphia, PA 170086  157 Wisahikan

Men - Cat 1/2/3 - U23 Men - 1-23

 Place Points NameCity, StateTime USAC #BibTeam
1Joseph Dombrowski   1:02:49  40 Haymarket/Homevisit

Men - Cat 1/2/3/4 - Master - 55-99

 Place Points NameCity, StateTime USAC #BibTeam
1404.12Fred Wittwer   Charlottesvle, VA0:38:53 38738  540 ALAN North American Cycling Team
2427.02Mike Connair   Elkton, MD0:41:06 76271  536 Christiana Care PT+/FSVS
3449.92Leone Pizzini   Avondale, PA0:43:47 59912  539 Secret Henry's Team
4472.82Mark Thompson   Upperville, VA0:44:36 279395  543 
5495.72Robert Perna   West Chester, PA0:44:47 233751  537 beans bikes
6518.62James Carlson   Springfield, VA-1 Lap 96832  541 Potomac Velo Club
7Mark Wigfield   -1 Lap  544 DCMTB Fueled by Whole Foods
8564.42james briggs   North Huntingdon, PA-1 Lap 274597  546 

Men - Cat 4 - Amateur U19

 Place Points NameCity, StateTime USAC #BibTeam
1Justin Mauch   San Francisco, CA 219434  679 NCVC
DNFShan Cerrone     676 
DNFSebastian Sturges     675 

Men - Cat 4 - C

 Place Points NameCity, StateTime USAC #BibTeam
1486.16Michael Githens   Mountain View, CA0:36:14 232054  501 Georgetown University Cycling
2487.53Jordan Cross   Arlington, VA0:36:41 8219  533 Squadra Coppi/IM Saab
3488.90Terry Turner   Beaverdam, VA0:37:47 298847  473 Carytown
4490.27Brian Schmierer   Washington, DC0:37:54 233114  472 
5491.64Josh Hall   Arlington, VA0:39:17 285283  458 Lanterne Rouge
6Cory Smith   0:39:32  428 wnichester wheelmen race team
7494.38Matthew Tucker   Washington, DC0:39:41 285310  434 
8495.75Kristopher Larsen   Nederland, CO0:39:50 300573  456 Evolution
9497.12Joel Ankeny   Elizabethtown, PA0:40:12 287290  465 RGM WATCHES / RICHARD SACHS CYCLES
10498.49Patrick Dolan   Arlington, VA0:40:14 286515  509 IM Saab Squadra Coppi
11499.86Aric Frederick   Baltimore, MD0:40:14 81170  416 Kelly Benefit Strategies/LSV
12501.23Luther Swift   Falls Church, VA0:40:23 301191  466 ye ol natural selections
13502.60Brooke Patterson   Washington, DC0:40:53 220581  437 Route 1 Velo/Arrow Bicycle
14503.97Scott Hendrickson   Phoenixville, PA0:40:57 244180  417 Philadelphia Ciclismo
15Dennis Dischler   0:41:00  497 Wooden Wheels Bike Shop
16Alex Mata   0:41:07  435 Evolution Cycling
17Michael Mazzarese   0:41:14  479 Kelly Benefit Strategies/LSV
18509.45Brian Cheung   Herndon, VA0:41:17 255065  481 Evolution Cycling Club
19510.82Keith Hower   Washington, PA0:41:19 274419  443 Dale Property Services
20Jason Pearlman   0:41:46  502 The Bike Rack
21Nicholas Taylor   0:41:48  422 Lanterne Rouge
22514.93Thomas Poche   Bethesda, MD0:42:02 261919  449 
23516.30Micah Smith   Arlington, VA0:42:03 240714  421 Squadra Coppi/IM Saab
24517.67Elliott Caldwell   Athens , GA0:42:14 288737  490 Route 1 Velo/Arrow Bicycle
25519.04Devon Halley   Alexandria, VA0:43:03 245309  480 NCVC/Inova Health System
26KRISTOPHER HAYNE   0:43:09  464 The Bike Lane
27521.78Lukasz Majewski   Lakewood, CO0:43:11 258194  482 Evolution Cycling Club
28523.15Stephen Spencer   Hyattsville, MD0:43:15 299850  510 1213 Racing
29Peter Schultz   0:43:24  452 
30rob bell   0:43:27  492 
31527.26Adam Lewandowski   Catonsville, MD0:43:28 218895  453 The Bike Lane
32528.63Robert George   Oakton, VA0:43:50 197917  496 
33530.00Craig Grube   Arnold, MD0:44:00 255725  468 Bayside Velo / Bike Doctor
34531.37Aaron Ghais   Potomac, MD0:44:01 206891  461 ALL-AMERICAN BICYCLE CLUB
35532.74gary sterner   Garner, NC0:44:02 254220  486 HUP United
36534.11Michael Dishman   Silver Spring, MD0:44:08 286384  498 Tri - Fam Racing
37David Kegley   0:44:27  528 Single Speed Outlaw
38John Reed   0:44:36  487 
39538.22Ron Edwards   Washington, DC0:44:39 288789  439 
40Colin Bonnington   0:45:02  529 
41540.96Jean Woodrow   Arlington, VA0:45:34 242058  504 Squadra Coppi/IM Saab
42542.33Robin Cutler   Saint Louis, MO0:45:35 296442  469 
43543.70Mike Schiavo   Arlington, VA0:45:41 221704  494 Squadra Coppi/IM Saab
44545.07Ryan Walsh   Bethesda, MD0:45:51 285320  513 
45Milton Rojas   0:46:17  525 PVC
46547.81Charles Kyle   Alexandria, VA0:46:32 191862  455 Renaissance Cycling
47549.18Christopher Gould   Stanley, VA0:46:44 186006  429 Whole Wheel Velo Club
48550.55Alex Siegel   Chicago, IL0:46:53 196578  526 Georgetown University Cycling
49551.92Ray Whitney   Dayton, MD0:47:31 303512  512 Adventures for the Cure
50553.29Michael Randers-Pehrson   Reston, VA0:47:36 197478  420 Whole Wheel Velo Club
51Chadd Westhoff   0:48:02  519 
53Mark Whittington   -1 LAP  534 Dutch Oven
54RICHARD WINKLER   -1 LAP  505 
55558.77Daniel Townsend   Waldorf, MD-1 LAP 254940  478 Bike Doctor/ Bayside Velo
56560.14Guilherme Roschke   Silver Spring, MD-1 LAP 301032  462 
57Jonathan Lok   -1 LAP  524 
58562.88Gunnar Christensen   Derwood, MD-1 LAP 6839  530 
59David Monticello   -1 LAP  535 Dutch Oven
60Levi Magyar   -1 LAP  527 Warrenton CC
61566.99Delmar Arnold   Winchester, VA-1 LAP 301171  423 wnichester wheelmen race team
62568.36Larry Kinder   Bristow, VA-1 LAP 298191  506 
64Robert Poe   -1 LAP  448 
65Josef Buchinger   -1 LAP  489 
66572.47George Bergeron   Arlington, VA-1 LAP 301460  499 
67Neil Lee   -1 LAP  520 
68Erik Arnold   -1 LAP  475 
69JP Sorrell   -1 LAP  511 Beaneaters
70Jordan Fuhr   -1 LAP  500 
71Daniel Kwon   -1 LAP  532 
72580.69Lawrence Sterrett   Alexandria, VA-1 LAP 226735  447 
73582.06Jake Thompson   Arlington, VA-1 LAP 251833  503 Squadra Coppi/IM Saab
74Chris Steckhan   -1 LAP  531 
75Fernando Castillo   -1 LAP  517 
76Warren Chambers   -1 LAP  488 
77587.54Joseph Spiezio   Silverspring, MD-1 LAP 303714  508 
78588.91Thomas Jones   Edgewater, MD-1 LAP 301801  515 Proteus Bicycles
79590.28George Blankenship   Alexandria, VA-1 LAP 248929  444 NCVC/Inova Health System
DNFMark Stahl   Vienna, VA 267703  418 SEAVS RACING / BEN'S PERFORMANCE BICYCLE
DNFErik Beatley   Winchester, VA 273786  424 wnichester wheelmen race team
DNFBrian Archer   Arlington, VA 283902  430 NCVC/Inova Health System
DNFLogan Felty     431 wnichester wheelmen race team
DNFCharles Barnes   Vienna, VA 222473  433 Lanterne Rouge
DNFJeff Brown   Wellesley, MA 298827  459 Tripower
DNFMichael Edmonds     476 Potomac Velo Club
DNFAdam Issenberg     485 NOAA Cycling
DNFDavid Hicks     493 
DNFwilliam vickers   Crownsville, MD 301642  521 Adventures for the Cure
4819Bret Baker   Alexandria, VAEtc. 293699  523 NCVC/Spokes

Women - Pro/Cat 1/2

 Place Points NameCity, StateTime USAC #BibTeam
1315.38Kristin Gavin   Philadelphia, PA0:30:00 255550  50 Human Zoom/Pabst Blue Ribbon
2322.26Nicole Thiemann   Philadelphia, PA0:30:00 213558  51 Human Zoom Pabst Blue Ribbon
3329.14Arley Kemmerer   Saylorsburg, PA0:30:33 240239  52 Hub Racing
4336.02Jennifer Maxwell   Washington, DC0:31:06 61179  53 ATAC Sportswear p/b Bike Rack DC
5342.90Lauri Webber   Newark, DE0:32:21 160128  55 Secret Henry's Team
6349.78Julie Kuliecza   Richmond, VA0:32:54 238481  58 Alan North America Cycling
7356.66Kristine Church   Philadelphia, PA0:33:06 142023  54 Human Zoom/ Pabst Blue Ribbon
8363.54Elizabeth Sheldon (1 - Cat2)   Washington, DC0:33:09 208059  63 T.E.A.M. Fuji
9Lenorez Popes   0:33:55  64 C3
10Terri Spanogle   0:34:39  65 NCVC/Inova Health System
11Diane Grim   0:35:21  56 C3 - Athletes Serving Athletes
12391.06Elizabeth Harlow   Baltimore, MD0:35:23 236188  60 C3 Athletes Serving Athletes
13397.94Lisa Most   Philadelphia, PA0:35:29 169580  57 Wissahickon/Engin Cycles

Women - Cat 1/2/3/4 - Master

 Place Points NameCity, StateTime USAC #BibTeam
1457.67Jill Waggett (1 - Cat2)   Hopewell, NJ0:36:19 141989  27 Guy's Racing Club
2Katy Curran   0:36:29  29 Evolution Cycling Club
3501.77Mary Alex   Lynchburg, VA0:39:11 281412  24 Evolution Cycling Club
4Debbie Conway   0:39:39  30 Evolution Cycling Club
5Anne Rock   0:41:26  20 Sturdy Girl Cycling
6Nora Colburn     28 Colburn Cycle
7589.97Denise Clearwater   Arnold, MD 282839  21 
DNFChristine Wehlburg (Cat4)   Herndon, VA 220922  23 Team Latitude/ABRT

Women - Cat 3/4 - B

 Place Points NameCity, StateTime USAC #BibTeam
1430.94Lindsey Hillesheim   Minneapolis, MN0:34:06 244915  549 Squadra Coppi/IM Saab
2438.08Misty Tilson   Harrisonburg, VA0:35:17 298635  570 Shenendoah Mtn Touring
3445.22Kathrin Schumacher   Pennington, NJ0:35:36 253641  551 Guy's Racing
4452.36Kimberly Dubeck   West Chester, PA0:35:54 260688  550 C3 Athletes serving Athletes
5459.50Rebecca Frederick   Washington, DC0:35:57 284761  554 Kelly Benefit Strategies/LSV
6466.64Kathleen Wulfkuhle (1 - Cat3)   Lancaster, PA0:36:31 234036  553 C3-Athletes Serving Athletes
7473.78Avanell Schmitz   Newport News, VA0:38:09 158858  568 
8Laura Harrington   0:38:24  571 Bike Lane
9488.06Julia Kochie   Arlington, VA0:38:37 285053  559 Kelly Benefit Strategies/LSV
10495.20Laurel Larsen   Berkeley, CA0:38:45 300574  557 Evolution Cycling Club
11502.34Ali Flis   Salt Lake City, UT0:39:23 218437  552 Human Zoom/ Pabst Blue Ribbon
12Kathleen Herndon   0:41:47  565 Vanderkitten Cycling Club
13516.62Rachel Teodori   Pittsburgh, PA0:42:44 271851  555 Steel City Endurance
14523.76Jessica Hall   Arlington, VA0:43:16 299945  563 
15530.90Jennifer Pope   Norfolk Va0:43:37 289426  562 Fat Frogs Racing
16538.04Jennifer Franko   Lafayette Hill, PA 284389  566 Proteus Bicycles
17Lisa Kilday     567 DC Triathlon Club
18552.32Stacia Brooks   Alexandria, VA 303008  572 
19Michele Buckley     564 
20Jennifer Linko     561 

Report missing or incorrect license numbers

Volkswagen
USACDFBonk BreakerSierra NevadaShimanoSpy
UCI USA Cycling is the official governing body for all disciplines of competitive cycling in the United States. The 501c3, membership-based organization aims both to achieve sustained success in international cycling competition and to grow competitive cycling in America while delivering an exceptional customer experience.
View Children's Online Privacy Protection Policy
US Olympic Committee